ADDS METAR Data INFO
IDs: Format: Raw Decoded Include TAF

Data at: 1043 UTC 19 Oct 2017

KHLC 190953Z AUTO 00000KT 9SM CLR 04/03 A3006 RMK AO2 SLP168 T00440028
KHLC 190853Z AUTO 33004KT 10SM CLR 06/03 A3006 RMK AO2 SLP169 T00560028 58005
KHLC 190753Z AUTO 34005KT 10SM CLR 06/03 A3007 RMK AO2 SLP170 T00610028
KHLC 190653Z AUTO 00000KT 10SM CLR 06/03 A3008 RMK AO2 SLP175 T00560028
KHLC 190553Z AUTO 28003KT 9SM CLR 07/03 A3008 RMK AO2 SLP175 T00720033 10194 20072 402940033 58003
KHLC 190453Z AUTO 00000KT 10SM CLR 09/03 A3009 RMK AO2 SLP181 T00940033
KHLC 190353Z AUTO 02008KT 10SM CLR 13/03 A3009 RMK AO2 SLP180 T01330033
KHLC 190253Z AUTO 02009KT 10SM CLR 15/03 A3009 RMK AO2 SLP182 T01500033 51019
KHLC 190153Z AUTO 02009KT 10SM CLR 14/04 A3008 RMK AO2 SLP183 T01440039
KHLC 190053Z AUTO 01011KT 10SM CLR 17/04 A3006 RMK AO2 SLP178 T01670039
KHLC 182353Z AUTO 36009KT 10SM CLR 19/03 A3003 RMK AO2 SLP163 T01940033 10294 20194 53014
KHLC 182253Z AUTO 01009KT 10SM CLR 26/02 A3000 RMK AO2 SLP147 T02610017
KHLC 182153Z AUTO 36009KT 10SM CLR 28/M01 A2999 RMK AO2 SLP142 T02831006
KHLC 182053Z AUTO 36007KT 10SM CLR 28/M01 A2998 RMK AO2 SLP137 T02781006 55003
KHLC 181953Z AUTO 35011G17KT 10SM CLR 29/M01 A2998 RMK AO2 SLP134 T02891011
KHLC 181853Z AUTO 33006KT 10SM CLR 28/01 A2998 RMK AO2 SLP136 T02780006
KHLC 181753Z AUTO 35008KT 10SM CLR 26/01 A2999 RMK AO2 SLP139 T02610011 10272 20033 50004
KHLC 181653Z AUTO 00000KT 10SM CLR 21/07 A2999 RMK AO2 SLP143 T02110072
KHLC 181553Z AUTO 27005KT 10SM CLR 17/06 A2998 RMK AO2 SLP142 T01720061
KHLC 181453Z AUTO 27004KT 10SM CLR 11/06 A2998 RMK AO2 SLP148 T01110061 51014
KHLC 181353Z AUTO 28003KT 10SM CLR 07/05 A2998 RMK AO2 SLP152 T00720050 $
KHLC 181253Z AUTO 32004KT 10SM CLR 03/03 A2995 RMK AO2 SLP142 T00330028 $
KHLC 181153Z AUTO 00000KT 10SM CLR 04/03 A2993 RMK AO2 SLP130 7//// T00440033 10144 20044 56004
KHLC 181053Z AUTO 00000KT 10SM CLR 08/05 A2993 RMK AO2 SLP125 T00780050
KHLC 180953Z AUTO 26004KT 10SM CLR 08/05 A2994 RMK AO2 SLP125 T00830050
KHLC 180853Z AUTO 25003KT 10SM CLR 11/06 A2995 RMK AO2 SLP126 T01060056 58011
KHLC 180753Z AUTO 23007KT 10SM CLR 11/06 A2996 RMK AO2 SLP131 T01110056
KHLC 180653Z AUTO 22009KT 10SM CLR 13/06 A2997 RMK AO2 SLPNO T01280061
KHLC 180553Z AUTO 21009KT 10SM CLR 14/06 A2998 RMK AO2 SLP137 T01440061 10217 20100 402780033 58012
KHLC 180453Z AUTO 23005KT 10SM CLR 16/06 A3000 RMK AO2 SLP144 T01560056
KHLC 180353Z AUTO 21004KT 10SM CLR 15/06 A3001 RMK AO2 SLP150 T01500056
KHLC 180253Z AUTO 22007KT 10SM CLR 12/04 A3002 RMK AO2 SLP158 T01220044 51005
KHLC 180153Z AUTO 21003KT 10SM CLR 12/04 A3001 RMK AO2 SLP163 T01170044
KHLC 180053Z AUTO 00000KT 10SM CLR 16/03 A3001 RMK AO2 SLP160 T01610033
KHLC 172353Z AUTO 17005KT 10SM CLR 22/03 A3000 RMK AO2 SLP153 6//// T02170028 10278 20217 56010
KHLC 172253Z AUTO 16005KT 10SM CLR 27/M01 A3001 RMK AO2 SLP151 T02671006